VLO2279 SBSJ-SBPA
Flight info
| Callsign | VLO2279 |
|---|---|
| Flight time | N/A |
| Altitude | 36000 |
| Route | UKDAN UZ45 UBSOD UZ38 VUKMO |
| Aircraft | B752/M-SDE3FGHIM3RWXY/LB1 |
Departure
| Time | 2026-04-24 16:20 |
|---|---|
| Airport | Professor Urbano Ernesto Stumpf Airport (SBSJ) |
Arrival
| Time | N/A |
|---|---|
| Airport | Porto Alegre-Salgado Filho International Airport (SBPA) |
| Time | Latitude | Longitude | Altitude | Speed | Heading |
|---|---|---|---|---|---|
| 2026-04-24 16:03 | -23.22502 | -45.86286 | 2140 ft | 0 kts | 94° |
| 2026-04-24 16:16 | -23.22503 | -45.86285 | 2140 ft | 0 kts | 95° |
| 2026-04-24 16:16 | -23.22505 | -45.86280 | 2140 ft | 1 kts | 128° |
| 2026-04-24 16:17 | -23.22474 | -45.86390 | 2140 ft | 12 kts | 311° |
| 2026-04-24 16:17 | -23.22320 | -45.86556 | 2140 ft | 18 kts | 316° |
| 2026-04-24 16:18 | -23.22107 | -45.86801 | 2140 ft | 26 kts | 304° |
| 2026-04-24 16:18 | -23.21922 | -45.87098 | 2139 ft | 11 kts | 276° |
| 2026-04-24 16:18 | -23.21949 | -45.87163 | 2139 ft | 8 kts | 219° |
| 2026-04-24 16:19 | -23.22017 | -45.87144 | 2139 ft | 18 kts | 136° |
| 2026-04-24 16:19 | -23.22334 | -45.86796 | 2140 ft | 107 kts | 135° |
| 2026-04-24 16:20 | -23.24017 | -45.85010 | 2915 ft | 200 kts | 136° |
| 2026-04-24 16:20 | -23.25947 | -45.82921 | 4465 ft | 214 kts | 134° |
| 2026-04-24 16:20 | -23.27043 | -45.81715 | 5036 ft | 232 kts | 134° |
| 2026-04-24 16:21 | -23.29902 | -45.79615 | 6147 ft | 272 kts | 171° |
| 2026-04-24 16:21 | -23.31828 | -45.79747 | 6721 ft | 288 kts | 200° |
| 2026-04-24 16:21 | -23.33617 | -45.80848 | 7044 ft | 299 kts | 224° |
| 2026-04-24 16:22 | -23.34855 | -45.82606 | 7026 ft | 288 kts | 240° |
| 2026-04-24 16:22 | -23.37152 | -45.86155 | 7011 ft | 286 kts | 233° |
| 2026-04-24 16:22 | -23.38407 | -45.87839 | 6998 ft | 285 kts | 231° |
| 2026-04-24 16:23 | -23.39686 | -45.89487 | 7003 ft | 285 kts | 231° |
| 2026-04-24 16:23 | -23.41006 | -45.91137 | 7012 ft | 288 kts | 227° |
| 2026-04-24 16:23 | -23.42604 | -45.92557 | 7572 ft | 296 kts | 218° |
| 2026-04-24 16:24 | -23.45979 | -45.95359 | 7984 ft | 296 kts | 218° |
| 2026-04-24 16:24 | -23.47570 | -45.96687 | 7989 ft | 286 kts | 218° |
| 2026-04-24 16:24 | -23.49169 | -45.98022 | 8005 ft | 293 kts | 218° |
| 2026-04-24 16:24 | -23.50795 | -45.99380 | 7990 ft | 292 kts | 218° |
| 2026-04-24 16:25 | -23.52423 | -46.00738 | 7977 ft | 291 kts | 218° |
| 2026-04-24 16:25 | -23.54058 | -46.02104 | 7975 ft | 292 kts | 218° |
| 2026-04-24 16:25 | -23.55693 | -46.03469 | 7976 ft | 292 kts | 219° |
| 2026-04-24 16:26 | -23.58721 | -46.05999 | 7971 ft | 291 kts | 219° |
| 2026-04-24 16:26 | -23.60339 | -46.07350 | 7969 ft | 291 kts | 219° |
| 2026-04-24 16:26 | -23.63586 | -46.10066 | 7973 ft | 294 kts | 218° |
| 2026-04-24 16:27 | -23.65240 | -46.11450 | 7957 ft | 291 kts | 218° |
| 2026-04-24 16:27 | -23.66920 | -46.12739 | 7981 ft | 296 kts | 207° |
| 2026-04-24 16:27 | -23.68855 | -46.13612 | 8741 ft | 301 kts | 202° |
| 2026-04-24 16:27 | -23.70775 | -46.14463 | 9720 ft | 302 kts | 202° |
| 2026-04-24 16:28 | -23.72721 | -46.15313 | 10532 ft | 309 kts | 202° |
| 2026-04-24 16:28 | -23.74809 | -46.16218 | 10903 ft | 331 kts | 202° |
| 2026-04-24 16:28 | -23.79360 | -46.18177 | 11646 ft | 370 kts | 202° |
| 2026-04-24 16:29 | -23.81858 | -46.19250 | 12049 ft | 385 kts | 202° |
| 2026-04-24 16:29 | -23.84357 | -46.20322 | 12784 ft | 388 kts | 202° |
| 2026-04-24 16:29 | -23.89489 | -46.22526 | 14127 ft | 396 kts | 203° |
| 2026-04-24 16:30 | -23.94761 | -46.24885 | 15492 ft | 400 kts | 210° |
| 2026-04-24 16:30 | -23.97079 | -46.26692 | 16101 ft | 400 kts | 225° |